Rock Springs Sweetwater County Airport
KRKS : now visible

Airfield :











YOU CAN JOIN US ON...

 
LOGIN :

Register | Disclaimer

   EN    FR    IT 

 









Legend :    VFR   Marginal VFR   IFR   Intensive IFR   Very Intensive IFR
Visi :
Ceiling :
>= 8 km
>= 3000ft
5 to 8 km
1000 to 3000 ft
1500m to 5 km
500 to 1000 ft
800 to 1500m
200 to 500 ft
< 800m
< 200 ft
Symbols :   Thunderstorms  Fog  Heavy snow  Heavy precipitations  Wind > 20 kt







- Airport Elevation : 6764 ft
- IATA code : RKS


KRKS - Rock Springs Sweetwater County

CURRENT METAR :
  • 221854Z AUTO 08014G25KT 10SM FEW021 BKN031 BKN045 06/M01 A2983 RMK AO2 PK WND 07026/1810 RAB02E10SNB00E02 SLP088 P0000 T00611006 TSNO

EXPIRED METARs :
  • 221828Z AUTO 05014G22KT 10SM SCT019 BKN025 OVC044 04/00 A2983 RMK AO2 PK WND 07026/1810 RAB02E10SNB00E02 P0000 T00440000 TSNO
  • 221812Z AUTO 07019G26KT 8SM SCT023 BKN031 OVC047 03/M01 A2982 RMK AO2 PK WND 07026/1810 RAB02E10SNB00E02 P0000 T00331011 TSNO
  • 221754Z AUTO 07015G24KT 10SM SCT023 BKN029 OVC038 03/M02 A2982 RMK AO2 SLP096 T00331022 10039 21017 53013 TSNO
  • 221654Z AUTO 06014KT 8SM SCT023 BKN028 OVC038 03/M02 A2980 RMK AO2 SLP090 T00281017 TSNO
  • 221623Z AUTO 08017KT 10SM SCT023 BKN029 BKN035 03/M02 A2979 RMK AO2 T00281022 TSNO

TAF KRKS
Valid from the 22 at 18:00 until the 23 at 18:00 UTC


221725Z 2218/2318 06015G23KT P6SM VCSH SCT020 OVC030
FM222000 07020G28KT P6SM SCT030 BKN060
FM230800 07024G32KT P6SM VCSH SCT025 OVC050
FM231100 07025G35KT 3SM -SN BR OVC007
KZLC FIR / North America



MET'MAP, your aeronautical weather chart ! - Copyright ORBIFLY December 2007 - Disclaimer

ORBIFLY MET'MAP TEAM :

Programming & Development : Alexandra Zaïnal
Concept & Development : Baudouin d'Aumeries
Co-Development & Prog : Marc-Olivier Méhu
Technical & hardware support : Manuel Goepfert

Contact : metmap@orbifly.com




SOURCES & CREDITS :

   NOAA       Earth
Advisory